Blue Hill, NE

2:02 PM CDT on August 30, 2016 (GMT -0500)
Bladen | | Change Station
Active Advisory: Flash Flood Watch Active Notice: Local Storm Report

Elev 2005 ft 40.32 °N, 98.60 °W | Updated 27 seconds ago

Scattered Clouds
Scattered Clouds
75.8 °F
Feels Like 77 °F
N
3.0
Wind Variable Wind from NE
Gusts 4.0 mph

Today
High -- | Low -- °F
--% Chance of Precip.
Yesterday
High -- | Low -- °F
Precip. -- in
Pressure 30.19 in
Visibility 10.0 miles
Clouds Few 2800 ft
Scattered Clouds 11000 ft
Heat Index 77 °F
Dew Point 69 °F
Humidity 79%
Rainfall 0.02 in
Snow Depth Not available.
6:59 AM 8:07 PM
Waning Crescent, 3% visible
METAR KHSI 301853Z AUTO 04005KT 10SM FEW028 SCT110 25/18 A3023 RMK AO2 SLP221 T02500183
Pressure 30.19 in
Visibility 10.0 miles
Clouds Few 2800 ft
Scattered Clouds 11000 ft
Heat Index 77 °F
Dew Point 69 °F
Humidity 79%
Rainfall 0.02 in
Snow Depth Not available.
6:59 AM 8:07 PM
Waning Crescent, 3% visible
METAR KHSI 301853Z AUTO 04005KT 10SM FEW028 SCT110 25/18 A3023 RMK AO2 SLP221 T02500183

10-Day Weather Forecast

Almanac

Astronomy

Aug. 30, 2016 Rise Set
Actual Time
Civil Twilight
Nautical Twilight
Astronomical Twilight
Moon
Length of Visible Light
Length of Day
Tomorrow will be .
, % of the Moon is Illuminated

Today's Extremes

State Highs State Lows

Community

WunderPhotos

Upload Photos

1,935,879 photos uploaded!

WunderBlog® & News

Nearby

Air Quality

  Air Quality AQ Index Pollutant
Not available.

Snow Depth

Station Depth Elevation

Earthquake Activity

City Distance Mag. Time & Date
Minimum magnitude displayed is 2.5.

Coastal Water Temperatures

Place Temperature

Stations

Nearby Weather Stations

Station Location Temp. Windchill Dew Point Humidity Wind Precip. Elev Updated Type
                   

Watches & Warnings

Flash Flood Watch
Issued: 1:43 PM CDT Aug. 30, 2016 – National Weather Service

... Flash Flood Watch now in effect until midnight CDT tonight...

The Flash Flood Watch is now in effect for

* portions of north central Kansas and south central Nebraska...
including the following areas... in north central Kansas...
Jewell... Mitchell... Osborne... Phillips... Rooks and Smith. In
south central Nebraska... Adams... Clay... Fillmore... Franklin...
Harlan... Kearney... Nuckolls... Thayer and Webster.

* Until midnight CDT tonight

* slow-moving thunderstorms will be possible and this could lead
to excessive rainfall amounts and flash flooding. Thunderstorms
will be rather scattered in nature... but due to the slow
motion... those that find themselves under one of these
thunderstorms will quickly see rainfall amounts add up.

* Very heavy rainfall rates of 2 inches per hour will be possible.

Precautionary/preparedness actions...

A Flash Flood Watch means that conditions may develop that lead
to flash flooding. Flash flooding is a very dangerous situation.

You should monitor later forecasts and be prepared to take action
should flash flood warnings be issued.